sensor_id;sensor_type;location;lat;lon;timestamp;P1;durP1;ratioP1;P2;durP2;ratioP2
11269;SDS011;5692;48.956;9.200;2023-03-08T00:01:20;121.20;;;115.40;;
11269;SDS011;5692;48.956;9.200;2023-03-08T00:03:49;125.78;;;119.75;;
11269;SDS011;5692;48.956;9.200;2023-03-08T00:06:15;120.75;;;114.95;;
11269;SDS011;5692;48.956;9.200;2023-03-08T00:08:41;116.80;;;111.20;;
11269;SDS011;5692;48.956;9.200;2023-03-08T00:11:08;127.60;;;121.50;;
11269;SDS011;5692;48.956;9.200;2023-03-08T00:13:34;129.63;;;123.43;;
11269;SDS011;5692;48.956;9.200;2023-03-08T00:16:01;120.68;;;114.88;;
11269;SDS011;5692;48.956;9.200;2023-03-08T00:18:27;125.03;;;119.03;;
11269;SDS011;5692;48.956;9.200;2023-03-08T00:20:57;121.55;;;115.70;;
11269;SDS011;5692;48.956;9.200;2023-03-08T00:23:23;119.70;;;113.95;;
11269;SDS011;5692;48.956;9.200;2023-03-08T00:25:52;113.55;;;108.05;;
11269;SDS011;5692;48.956;9.200;2023-03-08T00:28:19;113.88;;;108.38;;
11269;SDS011;5692;48.956;9.200;2023-03-08T00:30:45;119.15;;;113.43;;
11269;SDS011;5692;48.956;9.200;2023-03-08T00:33:11;124.78;;;118.78;;
11269;SDS011;5692;48.956;9.200;2023-03-08T00:35:37;116.32;;;110.72;;
11269;SDS011;5692;48.956;9.200;2023-03-08T00:38:03;123.05;;;117.15;;
11269;SDS011;5692;48.956;9.200;2023-03-08T00:40:29;121.03;;;115.23;;
11269;SDS011;5692;48.956;9.200;2023-03-08T00:42:55;116.50;;;110.90;;
11269;SDS011;5692;48.956;9.200;2023-03-08T00:45:21;115.63;;;110.07;;
11269;SDS011;5692;48.956;9.200;2023-03-08T00:47:47;113.67;;;108.17;;
11269;SDS011;5692;48.956;9.200;2023-03-08T00:50:13;113.60;;;108.13;;
11269;SDS011;5692;48.956;9.200;2023-03-08T00:52:38;115.27;;;109.77;;
11269;SDS011;5692;48.956;9.200;2023-03-08T00:55:05;109.65;;;104.38;;
11269;SDS011;5692;48.956;9.200;2023-03-08T00:57:31;110.70;;;105.38;;
11269;SDS011;5692;48.956;9.200;2023-03-08T00:59:57;112.35;;;106.95;;
11269;SDS011;5692;48.956;9.200;2023-03-08T01:02:23;120.20;;;114.40;;
11269;SDS011;5692;48.956;9.200;2023-03-08T01:04:49;121.15;;;115.35;;
11269;SDS011;5692;48.956;9.200;2023-03-08T01:07:15;125.22;;;119.22;;
11269;SDS011;5692;48.956;9.200;2023-03-08T01:09:42;114.65;;;109.15;;
11269;SDS011;5692;48.956;9.200;2023-03-08T01:12:08;118.18;;;112.47;;
11269;SDS011;5692;48.956;9.200;2023-03-08T01:14:34;130.35;;;124.10;;
11269;SDS011;5692;48.956;9.200;2023-03-08T01:16:59;127.35;;;121.25;;
11269;SDS011;5692;48.956;9.200;2023-03-08T01:19:25;125.72;;;119.72;;
11269;SDS011;5692;48.956;9.200;2023-03-08T01:21:51;137.35;;;130.75;;
11269;SDS011;5692;48.956;9.200;2023-03-08T01:24:17;123.38;;;117.47;;
11269;SDS011;5692;48.956;9.200;2023-03-08T01:26:45;122.78;;;116.88;;
11269;SDS011;5692;48.956;9.200;2023-03-08T01:29:11;108.10;;;102.90;;
11269;SDS011;5692;48.956;9.200;2023-03-08T01:31:37;102.03;;;97.13;;
11269;SDS011;5692;48.956;9.200;2023-03-08T01:34:03;105.78;;;100.68;;
11269;SDS011;5692;48.956;9.200;2023-03-08T01:36:29;115.05;;;109.55;;
11269;SDS011;5692;48.956;9.200;2023-03-08T01:38:55;112.15;;;106.75;;
11269;SDS011;5692;48.956;9.200;2023-03-08T01:41:23;111.32;;;105.97;;
11269;SDS011;5692;48.956;9.200;2023-03-08T01:43:49;110.40;;;105.10;;
11269;SDS011;5692;48.956;9.200;2023-03-08T01:48:48;112.57;;;107.17;;
11269;SDS011;5692;48.956;9.200;2023-03-08T01:51:16;117.93;;;112.28;;
11269;SDS011;5692;48.956;9.200;2023-03-08T01:53:43;121.60;;;115.78;;
11269;SDS011;5692;48.956;9.200;2023-03-08T01:56:11;119.30;;;113.60;;
11269;SDS011;5692;48.956;9.200;2023-03-08T01:58:40;122.85;;;116.95;;
11269;SDS011;5692;48.956;9.200;2023-03-08T02:01:08;124.25;;;118.28;;
11269;SDS011;5692;48.956;9.200;2023-03-08T02:03:34;122.20;;;116.30;;
11269;SDS011;5692;48.956;9.200;2023-03-08T02:06:00;118.15;;;112.47;;
11269;SDS011;5692;48.956;9.200;2023-03-08T02:08:27;116.60;;;111.00;;
11269;SDS011;5692;48.956;9.200;2023-03-08T02:10:53;114.18;;;108.68;;
11269;SDS011;5692;48.956;9.200;2023-03-08T02:13:20;111.28;;;105.95;;
11269;SDS011;5692;48.956;9.200;2023-03-08T02:15:46;115.72;;;110.15;;
11269;SDS011;5692;48.956;9.200;2023-03-08T02:18:14;108.85;;;103.63;;
11269;SDS011;5692;48.956;9.200;2023-03-08T02:20:39;106.68;;;101.55;;
11269;SDS011;5692;48.956;9.200;2023-03-08T02:23:10;115.20;;;109.68;;
11269;SDS011;5692;48.956;9.200;2023-03-08T02:25:36;118.00;;;112.32;;
11269;SDS011;5692;48.956;9.200;2023-03-08T02:28:02;116.13;;;110.53;;
11269;SDS011;5692;48.956;9.200;2023-03-08T02:30:29;120.20;;;114.43;;
11269;SDS011;5692;48.956;9.200;2023-03-08T02:32:55;120.68;;;114.88;;
11269;SDS011;5692;48.956;9.200;2023-03-08T02:35:21;110.60;;;105.30;;
11269;SDS011;5692;48.956;9.200;2023-03-08T02:37:47;112.72;;;107.32;;
11269;SDS011;5692;48.956;9.200;2023-03-08T02:40:13;109.45;;;104.18;;
11269;SDS011;5692;48.956;9.200;2023-03-08T02:42:40;109.82;;;104.53;;
11269;SDS011;5692;48.956;9.200;2023-03-08T02:45:06;124.32;;;118.35;;
11269;SDS011;5692;48.956;9.200;2023-03-08T02:47:32;118.55;;;112.85;;
11269;SDS011;5692;48.956;9.200;2023-03-08T02:49:58;112.38;;;106.97;;
11269;SDS011;5692;48.956;9.200;2023-03-08T02:52:24;113.55;;;108.10;;
11269;SDS011;5692;48.956;9.200;2023-03-08T02:54:50;119.55;;;113.82;;
11269;SDS011;5692;48.956;9.200;2023-03-08T02:57:17;117.07;;;111.47;;
11269;SDS011;5692;48.956;9.200;2023-03-08T02:59:43;116.00;;;110.40;;
11269;SDS011;5692;48.956;9.200;2023-03-08T03:02:09;114.20;;;108.70;;
11269;SDS011;5692;48.956;9.200;2023-03-08T03:04:35;118.22;;;112.55;;
11269;SDS011;5692;48.956;9.200;2023-03-08T03:07:02;116.63;;;111.03;;
11269;SDS011;5692;48.956;9.200;2023-03-08T03:09:28;119.70;;;113.95;;
11269;SDS011;5692;48.956;9.200;2023-03-08T03:11:54;120.47;;;114.68;;
11269;SDS011;5692;48.956;9.200;2023-03-08T03:14:20;118.88;;;113.18;;
11269;SDS011;5692;48.956;9.200;2023-03-08T03:16:46;112.53;;;107.13;;
11269;SDS011;5692;48.956;9.200;2023-03-08T03:19:12;109.20;;;103.95;;
11269;SDS011;5692;48.956;9.200;2023-03-08T03:21:38;112.75;;;107.35;;
11269;SDS011;5692;48.956;9.200;2023-03-08T03:24:05;113.70;;;108.20;;
11269;SDS011;5692;48.956;9.200;2023-03-08T03:26:31;112.28;;;106.88;;
11269;SDS011;5692;48.956;9.200;2023-03-08T03:28:57;110.45;;;105.15;;
11269;SDS011;5692;48.956;9.200;2023-03-08T03:31:23;114.70;;;109.20;;
11269;SDS011;5692;48.956;9.200;2023-03-08T03:33:50;116.20;;;110.60;;
11269;SDS011;5692;48.956;9.200;2023-03-08T03:36:17;120.85;;;115.05;;
11269;SDS011;5692;48.956;9.200;2023-03-08T03:38:43;121.85;;;116.00;;
11269;SDS011;5692;48.956;9.200;2023-03-08T03:41:10;115.63;;;110.07;;
11269;SDS011;5692;48.956;9.200;2023-03-08T03:43:36;113.55;;;108.05;;
11269;SDS011;5692;48.956;9.200;2023-03-08T03:46:03;110.88;;;105.57;;
11269;SDS011;5692;48.956;9.200;2023-03-08T03:48:30;115.18;;;109.65;;
11269;SDS011;5692;48.956;9.200;2023-03-08T03:50:57;112.93;;;107.53;;
11269;SDS011;5692;48.956;9.200;2023-03-08T03:53:23;117.32;;;111.70;;
11269;SDS011;5692;48.956;9.200;2023-03-08T03:55:49;120.68;;;114.88;;
11269;SDS011;5692;48.956;9.200;2023-03-08T03:58:15;113.03;;;107.63;;
11269;SDS011;5692;48.956;9.200;2023-03-08T04:00:41;110.38;;;105.07;;
11269;SDS011;5692;48.956;9.200;2023-03-08T04:03:08;111.20;;;105.85;;
11269;SDS011;5692;48.956;9.200;2023-03-08T04:05:34;121.28;;;115.47;;
11269;SDS011;5692;48.956;9.200;2023-03-08T04:08:00;119.30;;;113.60;;
11269;SDS011;5692;48.956;9.200;2023-03-08T04:10:26;120.30;;;114.50;;
11269;SDS011;5692;48.956;9.200;2023-03-08T04:12:52;112.35;;;106.95;;
11269;SDS011;5692;48.956;9.200;2023-03-08T04:15:18;107.53;;;102.32;;
11269;SDS011;5692;48.956;9.200;2023-03-08T04:17:44;108.53;;;103.32;;
11269;SDS011;5692;48.956;9.200;2023-03-08T04:20:10;107.38;;;102.20;;
11269;SDS011;5692;48.956;9.200;2023-03-08T04:22:38;104.57;;;99.57;;
11269;SDS011;5692;48.956;9.200;2023-03-08T04:25:04;99.10;;;94.33;;
11269;SDS011;5692;48.956;9.200;2023-03-08T04:27:30;102.25;;;97.35;;
11269;SDS011;5692;48.956;9.200;2023-03-08T04:29:56;101.83;;;96.93;;
11269;SDS011;5692;48.956;9.200;2023-03-08T04:32:22;105.50;;;100.40;;
11269;SDS011;5692;48.956;9.200;2023-03-08T04:34:48;109.60;;;104.30;;
11269;SDS011;5692;48.956;9.200;2023-03-08T04:37:14;95.93;;;91.32;;
11269;SDS011;5692;48.956;9.200;2023-03-08T04:39:40;107.53;;;102.37;;
11269;SDS011;5692;48.956;9.200;2023-03-08T04:42:06;101.97;;;97.07;;
11269;SDS011;5692;48.956;9.200;2023-03-08T04:44:32;115.57;;;110.00;;
11269;SDS011;5692;48.956;9.200;2023-03-08T04:46:58;117.95;;;112.25;;
11269;SDS011;5692;48.956;9.200;2023-03-08T04:49:24;114.35;;;108.85;;
11269;SDS011;5692;48.956;9.200;2023-03-08T04:51:50;112.15;;;106.75;;
11269;SDS011;5692;48.956;9.200;2023-03-08T04:54:16;117.20;;;111.57;;
11269;SDS011;5692;48.956;9.200;2023-03-08T04:56:42;110.30;;;105.00;;
11269;SDS011;5692;48.956;9.200;2023-03-08T04:59:08;117.97;;;112.30;;
11269;SDS011;5692;48.956;9.200;2023-03-08T05:01:34;115.70;;;110.15;;
11269;SDS011;5692;48.956;9.200;2023-03-08T05:04:00;116.97;;;111.38;;
11269;SDS011;5692;48.956;9.200;2023-03-08T05:06:26;119.82;;;114.07;;
11269;SDS011;5692;48.956;9.200;2023-03-08T05:08:52;108.70;;;103.50;;
11269;SDS011;5692;48.956;9.200;2023-03-08T05:11:20;114.88;;;109.38;;
11269;SDS011;5692;48.956;9.200;2023-03-08T05:13:46;119.82;;;114.07;;
11269;SDS011;5692;48.956;9.200;2023-03-08T05:16:12;131.45;;;125.15;;
11269;SDS011;5692;48.956;9.200;2023-03-08T05:18:38;121.50;;;115.70;;
11269;SDS011;5692;48.956;9.200;2023-03-08T05:21:05;122.80;;;116.90;;
11269;SDS011;5692;48.956;9.200;2023-03-08T05:23:32;130.93;;;124.65;;
11269;SDS011;5692;48.956;9.200;2023-03-08T05:25:58;122.35;;;116.47;;
11269;SDS011;5692;48.956;9.200;2023-03-08T05:28:25;114.90;;;109.38;;
11269;SDS011;5692;48.956;9.200;2023-03-08T05:33:27;111.80;;;106.43;;
11269;SDS011;5692;48.956;9.200;2023-03-08T05:35:53;111.80;;;106.40;;
11269;SDS011;5692;48.956;9.200;2023-03-08T05:38:20;106.88;;;101.78;;
11269;SDS011;5692;48.956;9.200;2023-03-08T05:40:46;108.05;;;102.85;;
11269;SDS011;5692;48.956;9.200;2023-03-08T05:43:12;118.03;;;112.35;;
11269;SDS011;5692;48.956;9.200;2023-03-08T05:45:38;106.10;;;101.00;;
11269;SDS011;5692;48.956;9.200;2023-03-08T05:48:04;120.00;;;114.22;;
11269;SDS011;5692;48.956;9.200;2023-03-08T05:50:30;110.70;;;105.40;;
11269;SDS011;5692;48.956;9.200;2023-03-08T05:52:56;117.28;;;111.65;;
11269;SDS011;5692;48.956;9.200;2023-03-08T05:55:22;112.97;;;107.53;;
11269;SDS011;5692;48.956;9.200;2023-03-08T05:57:48;112.60;;;107.20;;
11269;SDS011;5692;48.956;9.200;2023-03-08T06:00:15;103.88;;;98.88;;
11269;SDS011;5692;48.956;9.200;2023-03-08T06:02:41;113.30;;;107.85;;
11269;SDS011;5692;48.956;9.200;2023-03-08T06:05:07;112.60;;;107.20;;
11269;SDS011;5692;48.956;9.200;2023-03-08T06:07:34;114.78;;;109.28;;
11269;SDS011;5692;48.956;9.200;2023-03-08T06:10:00;117.93;;;112.22;;
11269;SDS011;5692;48.956;9.200;2023-03-08T06:12:26;112.93;;;107.53;;
11269;SDS011;5692;48.956;9.200;2023-03-08T06:14:52;114.05;;;108.57;;
11269;SDS011;5692;48.956;9.200;2023-03-08T06:17:18;112.57;;;107.18;;
11269;SDS011;5692;48.956;9.200;2023-03-08T06:19:45;115.40;;;109.88;;
11269;SDS011;5692;48.956;9.200;2023-03-08T06:22:11;110.40;;;105.10;;
11269;SDS011;5692;48.956;9.200;2023-03-08T06:24:37;110.53;;;105.22;;
11269;SDS011;5692;48.956;9.200;2023-03-08T06:27:03;99.47;;;94.68;;
11269;SDS011;5692;48.956;9.200;2023-03-08T06:29:29;99.90;;;95.10;;
11269;SDS011;5692;48.956;9.200;2023-03-08T06:31:55;104.63;;;99.60;;
11269;SDS011;5692;48.956;9.200;2023-03-08T06:34:21;109.80;;;104.50;;
11269;SDS011;5692;48.956;9.200;2023-03-08T06:36:46;115.85;;;110.25;;
11269;SDS011;5692;48.956;9.200;2023-03-08T06:39:12;115.82;;;110.22;;
11269;SDS011;5692;48.956;9.200;2023-03-08T06:41:38;120.35;;;114.55;;
11269;SDS011;5692;48.956;9.200;2023-03-08T06:44:05;108.45;;;103.25;;
11269;SDS011;5692;48.956;9.200;2023-03-08T06:46:30;122.25;;;116.35;;
11269;SDS011;5692;48.956;9.200;2023-03-08T06:48:58;121.82;;;115.97;;
11269;SDS011;5692;48.956;9.200;2023-03-08T06:51:25;120.13;;;114.35;;
11269;SDS011;5692;48.956;9.200;2023-03-08T06:53:51;122.93;;;117.03;;
11269;SDS011;5692;48.956;9.200;2023-03-08T06:56:17;118.50;;;112.80;;
11269;SDS011;5692;48.956;9.200;2023-03-08T06:58:43;127.60;;;121.50;;
11269;SDS011;5692;48.956;9.200;2023-03-08T07:01:09;125.53;;;119.53;;
11269;SDS011;5692;48.956;9.200;2023-03-08T07:03:35;119.53;;;113.80;;
11269;SDS011;5692;48.956;9.200;2023-03-08T07:06:02;116.65;;;111.05;;
11269;SDS011;5692;48.956;9.200;2023-03-08T07:08:28;120.03;;;114.25;;
11269;SDS011;5692;48.956;9.200;2023-03-08T07:10:55;118.18;;;112.47;;
11269;SDS011;5692;48.956;9.200;2023-03-08T07:13:22;115.65;;;110.10;;
11269;SDS011;5692;48.956;9.200;2023-03-08T07:15:49;110.53;;;105.22;;
11269;SDS011;5692;48.956;9.200;2023-03-08T07:18:15;121.03;;;115.20;;
11269;SDS011;5692;48.956;9.200;2023-03-08T07:20:41;124.45;;;118.45;;
11269;SDS011;5692;48.956;9.200;2023-03-08T07:23:07;131.25;;;124.95;;
11269;SDS011;5692;48.956;9.200;2023-03-08T07:25:33;119.05;;;113.35;;
11269;SDS011;5692;48.956;9.200;2023-03-08T07:27:59;124.90;;;118.90;;
11269;SDS011;5692;48.956;9.200;2023-03-08T07:30:25;122.53;;;116.63;;
11269;SDS011;5692;48.956;9.200;2023-03-08T07:32:52;118.35;;;112.65;;
11269;SDS011;5692;48.956;9.200;2023-03-08T07:35:18;119.82;;;114.07;;
11269;SDS011;5692;48.956;9.200;2023-03-08T07:37:45;119.75;;;114.00;;
11269;SDS011;5692;48.956;9.200;2023-03-08T07:40:12;114.85;;;109.35;;
11269;SDS011;5692;48.956;9.200;2023-03-08T07:42:38;124.88;;;118.88;;
11269;SDS011;5692;48.956;9.200;2023-03-08T07:45:04;116.53;;;110.93;;
11269;SDS011;5692;48.956;9.200;2023-03-08T07:47:30;116.25;;;110.65;;
11269;SDS011;5692;48.956;9.200;2023-03-08T07:49:56;114.05;;;108.55;;
11269;SDS011;5692;48.956;9.200;2023-03-08T07:52:27;107.05;;;101.90;;
11269;SDS011;5692;48.956;9.200;2023-03-08T07:54:53;116.82;;;111.22;;
11269;SDS011;5692;48.956;9.200;2023-03-08T07:57:19;111.28;;;105.93;;
11269;SDS011;5692;48.956;9.200;2023-03-08T07:59:45;115.22;;;109.70;;
11269;SDS011;5692;48.956;9.200;2023-03-08T08:02:12;117.95;;;112.28;;
11269;SDS011;5692;48.956;9.200;2023-03-08T08:04:38;124.45;;;118.47;;
11269;SDS011;5692;48.956;9.200;2023-03-08T08:07:04;118.50;;;112.80;;
11269;SDS011;5692;48.956;9.200;2023-03-08T08:09:30;128.68;;;122.47;;
11269;SDS011;5692;48.956;9.200;2023-03-08T08:11:56;125.43;;;119.38;;
11269;SDS011;5692;48.956;9.200;2023-03-08T08:14:22;123.63;;;117.70;;
11269;SDS011;5692;48.956;9.200;2023-03-08T08:16:48;118.95;;;113.25;;
11269;SDS011;5692;48.956;9.200;2023-03-08T08:19:16;123.72;;;117.78;;
11269;SDS011;5692;48.956;9.200;2023-03-08T08:21:42;125.00;;;119.00;;
11269;SDS011;5692;48.956;9.200;2023-03-08T08:24:08;124.70;;;118.70;;
11269;SDS011;5692;48.956;9.200;2023-03-08T08:26:34;125.00;;;119.00;;
11269;SDS011;5692;48.956;9.200;2023-03-08T08:29:00;112.38;;;106.97;;
11269;SDS011;5692;48.956;9.200;2023-03-08T08:31:27;116.15;;;110.55;;
11269;SDS011;5692;48.956;9.200;2023-03-08T08:33:57;111.38;;;106.03;;
11269;SDS011;5692;48.956;9.200;2023-03-08T08:36:23;115.18;;;109.65;;
11269;SDS011;5692;48.956;9.200;2023-03-08T08:38:49;118.05;;;112.38;;
11269;SDS011;5692;48.956;9.200;2023-03-08T08:41:16;110.13;;;104.82;;
11269;SDS011;5692;48.956;9.200;2023-03-08T08:43:43;116.60;;;111.00;;
11269;SDS011;5692;48.956;9.200;2023-03-08T08:46:10;118.05;;;112.35;;
11269;SDS011;5692;48.956;9.200;2023-03-08T08:48:36;127.80;;;121.68;;
11269;SDS011;5692;48.956;9.200;2023-03-08T08:51:03;119.90;;;114.15;;
11269;SDS011;5692;48.956;9.200;2023-03-08T08:53:29;113.28;;;107.82;;
11269;SDS011;5692;48.956;9.200;2023-03-08T08:55:55;128.65;;;122.45;;
11269;SDS011;5692;48.956;9.200;2023-03-08T08:58:21;111.90;;;106.53;;
11269;SDS011;5692;48.956;9.200;2023-03-08T09:00:48;117.28;;;111.65;;
11269;SDS011;5692;48.956;9.200;2023-03-08T09:03:14;110.43;;;105.13;;
11269;SDS011;5692;48.956;9.200;2023-03-08T09:05:41;117.75;;;112.05;;
11269;SDS011;5692;48.956;9.200;2023-03-08T09:08:07;112.10;;;106.72;;
11269;SDS011;5692;48.956;9.200;2023-03-08T09:10:34;124.97;;;118.97;;
11269;SDS011;5692;48.956;9.200;2023-03-08T09:13:00;116.07;;;110.47;;
11269;SDS011;5692;48.956;9.200;2023-03-08T09:15:26;127.10;;;121.00;;
11269;SDS011;5692;48.956;9.200;2023-03-08T09:17:52;128.15;;;122.00;;
11269;SDS011;5692;48.956;9.200;2023-03-08T09:20:19;120.50;;;114.70;;
11269;SDS011;5692;48.956;9.200;2023-03-08T09:22:45;122.43;;;116.55;;
11269;SDS011;5692;48.956;9.200;2023-03-08T09:25:11;133.25;;;126.85;;
11269;SDS011;5692;48.956;9.200;2023-03-08T09:27:38;115.45;;;109.90;;
11269;SDS011;5692;48.956;9.200;2023-03-08T09:30:04;120.38;;;114.57;;
11269;SDS011;5692;48.956;9.200;2023-03-08T09:32:33;123.05;;;117.15;;
11269;SDS011;5692;48.956;9.200;2023-03-08T09:35:00;123.13;;;117.22;;
11269;SDS011;5692;48.956;9.200;2023-03-08T09:37:26;122.65;;;116.75;;
11269;SDS011;5692;48.956;9.200;2023-03-08T09:39:52;120.22;;;114.45;;
11269;SDS011;5692;48.956;9.200;2023-03-08T09:42:23;121.05;;;115.25;;
11269;SDS011;5692;48.956;9.200;2023-03-08T09:52:31;112.18;;;106.78;;
11269;SDS011;5692;48.956;9.200;2023-03-08T09:54:59;120.10;;;114.30;;
11269;SDS011;5692;48.956;9.200;2023-03-08T09:57:31;118.57;;;112.88;;
11269;SDS011;5692;48.956;9.200;2023-03-08T09:59:59;117.65;;;112.00;;
11269;SDS011;5692;48.956;9.200;2023-03-08T10:05:05;114.30;;;108.80;;
11269;SDS011;5692;48.956;9.200;2023-03-08T10:15:28;110.10;;;104.80;;
11269;SDS011;5692;48.956;9.200;2023-03-08T10:17:57;116.68;;;111.07;;
11269;SDS011;5692;48.956;9.200;2023-03-08T10:20:28;121.65;;;115.85;;
11269;SDS011;5692;48.956;9.200;2023-03-08T10:23:00;119.88;;;114.10;;
11269;SDS011;5692;48.956;9.200;2023-03-08T10:25:27;108.32;;;103.13;;
11269;SDS011;5692;48.956;9.200;2023-03-08T10:27:55;116.70;;;111.10;;
11269;SDS011;5692;48.956;9.200;2023-03-08T10:30:23;126.90;;;120.80;;
11269;SDS011;5692;48.956;9.200;2023-03-08T10:32:50;120.78;;;114.97;;
11269;SDS011;5692;48.956;9.200;2023-03-08T10:35:17;122.88;;;116.97;;
11269;SDS011;5692;48.956;9.200;2023-03-08T10:37:48;127.15;;;121.05;;
11269;SDS011;5692;48.956;9.200;2023-03-08T10:40:15;120.47;;;114.68;;
11269;SDS011;5692;48.956;9.200;2023-03-08T10:42:48;127.53;;;121.40;;
11269;SDS011;5692;48.956;9.200;2023-03-08T10:45:17;132.40;;;126.03;;
11269;SDS011;5692;48.956;9.200;2023-03-08T10:48:19;127.50;;;121.38;;
11269;SDS011;5692;48.956;9.200;2023-03-08T10:50:38;124.93;;;118.93;;
11269;SDS011;5692;48.956;9.200;2023-03-08T10:53:08;135.90;;;129.40;;
11269;SDS011;5692;48.956;9.200;2023-03-08T10:55:53;137.63;;;131.02;;
11269;SDS011;5692;48.956;9.200;2023-03-08T11:00:52;115.78;;;110.20;;
11269;SDS011;5692;48.956;9.200;2023-03-08T11:03:19;119.05;;;113.35;;
11269;SDS011;5692;48.956;9.200;2023-03-08T11:05:54;114.65;;;109.15;;
11269;SDS011;5692;48.956;9.200;2023-03-08T11:08:22;120.03;;;114.22;;
11269;SDS011;5692;48.956;9.200;2023-03-08T11:10:58;119.28;;;113.57;;
11269;SDS011;5692;48.956;9.200;2023-03-08T11:13:38;116.47;;;110.88;;
11269;SDS011;5692;48.956;9.200;2023-03-08T11:21:31;128.85;;;122.65;;
11269;SDS011;5692;48.956;9.200;2023-03-08T11:26:34;127.35;;;121.25;;
11269;SDS011;5692;48.956;9.200;2023-03-08T11:40:12;139.70;;;133.00;;
11269;SDS011;5692;48.956;9.200;2023-03-08T11:42:53;145.90;;;138.90;;
11269;SDS011;5692;48.956;9.200;2023-03-08T11:47:51;144.50;;;137.60;;
11269;SDS011;5692;48.956;9.200;2023-03-08T11:50:24;151.65;;;144.35;;
11269;SDS011;5692;48.956;9.200;2023-03-08T12:00:45;128.68;;;122.47;;
11269;SDS011;5692;48.956;9.200;2023-03-08T12:03:15;160.88;;;153.18;;
11269;SDS011;5692;48.956;9.200;2023-03-08T12:05:45;25.08;;;23.83;;
11269;SDS011;5692;48.956;9.200;2023-03-08T12:08:28;2.90;;;0.98;;
11269;SDS011;5692;48.956;9.200;2023-03-08T12:11:10;2.80;;;0.30;;
11269;SDS011;5692;48.956;9.200;2023-03-08T12:13:57;2.63;;;0.40;;
11269;SDS011;5692;48.956;9.200;2023-03-08T12:16:35;2.33;;;0.30;;
11269;SDS011;5692;48.956;9.200;2023-03-08T12:19:05;2.30;;;0.30;;
11269;SDS011;5692;48.956;9.200;2023-03-08T12:27:04;3.00;;;0.40;;
11269;SDS011;5692;48.956;9.200;2023-03-08T12:31:59;163.60;;;155.77;;
11269;SDS011;5692;48.956;9.200;2023-03-08T12:36:51;150.25;;;143.05;;
11269;SDS011;5692;48.956;9.200;2023-03-08T12:39:29;147.65;;;140.55;;
11269;SDS011;5692;48.956;9.200;2023-03-08T12:44:25;158.30;;;150.70;;
11269;SDS011;5692;48.956;9.200;2023-03-08T12:46:52;2.50;;;0.30;;
11269;SDS011;5692;48.956;9.200;2023-03-08T12:49:21;2.40;;;0.30;;
11269;SDS011;5692;48.956;9.200;2023-03-08T12:51:58;2.42;;;0.30;;
11269;SDS011;5692;48.956;9.200;2023-03-08T12:54:25;2.50;;;0.30;;
11269;SDS011;5692;48.956;9.200;2023-03-08T12:56:53;122.47;;;116.57;;
11269;SDS011;5692;48.956;9.200;2023-03-08T13:06:59;165.18;;;157.25;;
11269;SDS011;5692;48.956;9.200;2023-03-08T13:09:34;151.57;;;144.30;;
11269;SDS011;5692;48.956;9.200;2023-03-08T13:17:03;141.50;;;134.70;;
11269;SDS011;5692;48.956;9.200;2023-03-08T13:19:47;99.47;;;94.68;;
11269;SDS011;5692;48.956;9.200;2023-03-08T13:22:19;2.70;;;0.40;;
11269;SDS011;5692;48.956;9.200;2023-03-08T13:24:53;125.72;;;119.68;;
11269;SDS011;5692;48.956;9.200;2023-03-08T13:27:27;120.30;;;114.53;;
11269;SDS011;5692;48.956;9.200;2023-03-08T13:29:58;18.33;;;17.40;;
11269;SDS011;5692;48.956;9.200;2023-03-08T13:32:26;207.13;;;197.20;;
11269;SDS011;5692;48.956;9.200;2023-03-08T13:35:02;208.95;;;198.95;;
11269;SDS011;5692;48.956;9.200;2023-03-08T13:37:28;150.23;;;143.02;;
11269;SDS011;5692;48.956;9.200;2023-03-08T13:39:57;139.35;;;132.65;;
11269;SDS011;5692;48.956;9.200;2023-03-08T13:42:24;158.10;;;150.50;;
11269;SDS011;5692;48.956;9.200;2023-03-08T13:44:51;151.65;;;144.38;;
11269;SDS011;5692;48.956;9.200;2023-03-08T13:47:21;161.32;;;153.63;;
11269;SDS011;5692;48.956;9.200;2023-03-08T13:49:48;196.90;;;187.50;;
11269;SDS011;5692;48.956;9.200;2023-03-08T13:52:19;204.90;;;195.10;;
11269;SDS011;5692;48.956;9.200;2023-03-08T13:54:46;196.35;;;186.95;;
11269;SDS011;5692;48.956;9.200;2023-03-08T13:57:17;195.63;;;186.25;;
11269;SDS011;5692;48.956;9.200;2023-03-08T13:59:51;203.00;;;193.27;;
11269;SDS011;5692;48.956;9.200;2023-03-08T14:02:19;187.57;;;178.57;;
11269;SDS011;5692;48.956;9.200;2023-03-08T14:04:45;209.18;;;199.18;;
11269;SDS011;5692;48.956;9.200;2023-03-08T14:07:16;185.35;;;176.45;;
11269;SDS011;5692;48.956;9.200;2023-03-08T14:09:44;183.40;;;174.60;;
11269;SDS011;5692;48.956;9.200;2023-03-08T14:12:11;188.70;;;179.68;;
11269;SDS011;5692;48.956;9.200;2023-03-08T14:14:39;186.20;;;177.30;;
11269;SDS011;5692;48.956;9.200;2023-03-08T14:17:13;185.43;;;176.55;;
11269;SDS011;5692;48.956;9.200;2023-03-08T14:19:42;187.73;;;178.73;;
11269;SDS011;5692;48.956;9.200;2023-03-08T14:24:34;170.63;;;162.47;;
11269;SDS011;5692;48.956;9.200;2023-03-08T14:29:40;182.00;;;173.30;;
11269;SDS011;5692;48.956;9.200;2023-03-08T14:34:40;178.50;;;169.95;;
11269;SDS011;5692;48.956;9.200;2023-03-08T14:37:22;169.77;;;161.65;;
11269;SDS011;5692;48.956;9.200;2023-03-08T14:39:50;182.45;;;173.73;;
11269;SDS011;5692;48.956;9.200;2023-03-08T14:44:53;170.43;;;162.23;;
11269;SDS011;5692;48.956;9.200;2023-03-08T14:47:25;169.68;;;161.57;;
11269;SDS011;5692;48.956;9.200;2023-03-08T14:49:55;163.63;;;155.77;;
11269;SDS011;5692;48.956;9.200;2023-03-08T14:52:21;173.82;;;165.52;;
11269;SDS011;5692;48.956;9.200;2023-03-08T14:54:47;162.82;;;155.02;;
11269;SDS011;5692;48.956;9.200;2023-03-08T14:57:17;172.30;;;164.00;;
11269;SDS011;5692;48.956;9.200;2023-03-08T14:59:44;165.50;;;157.57;;
11269;SDS011;5692;48.956;9.200;2023-03-08T15:02:11;168.65;;;160.55;;
11269;SDS011;5692;48.956;9.200;2023-03-08T15:04:37;170.55;;;162.38;;
11269;SDS011;5692;48.956;9.200;2023-03-08T15:07:03;165.88;;;157.93;;
11269;SDS011;5692;48.956;9.200;2023-03-08T15:09:30;177.65;;;169.15;;
11269;SDS011;5692;48.956;9.200;2023-03-08T15:11:56;167.25;;;159.25;;
11269;SDS011;5692;48.956;9.200;2023-03-08T15:14:25;165.00;;;157.10;;
11269;SDS011;5692;48.956;9.200;2023-03-08T15:16:52;162.00;;;154.20;;
11269;SDS011;5692;48.956;9.200;2023-03-08T15:19:19;175.18;;;166.77;;
11269;SDS011;5692;48.956;9.200;2023-03-08T15:21:45;165.68;;;157.75;;
11269;SDS011;5692;48.956;9.200;2023-03-08T15:24:15;171.80;;;163.60;;
11269;SDS011;5692;48.956;9.200;2023-03-08T15:26:42;174.75;;;166.38;;
11269;SDS011;5692;48.956;9.200;2023-03-08T15:29:11;166.45;;;158.45;;
11269;SDS011;5692;48.956;9.200;2023-03-08T15:31:43;160.70;;;153.00;;
11269;SDS011;5692;48.956;9.200;2023-03-08T15:34:09;164.37;;;156.47;;
11269;SDS011;5692;48.956;9.200;2023-03-08T15:36:35;163.73;;;155.88;;
11269;SDS011;5692;48.956;9.200;2023-03-08T15:39:03;169.25;;;161.15;;
11269;SDS011;5692;48.956;9.200;2023-03-08T15:41:29;170.77;;;162.57;;
11269;SDS011;5692;48.956;9.200;2023-03-08T15:43:55;161.83;;;154.07;;